Tiempo atmosférico en la estación meteorológica de La Orotava, Cañadas Teide, Santa Cruz de Tenerife (2150 m.)



Fecha
DESCASC
Temp. máxima en grados centígrados (hora)
DESCASC
Temp. mínima en grados centígrados (hora)
DESCASC
Temp. media en grados centígrados
DESCASC
Racha de viento máxima en m/sg (hora)
DESCASC
Velocidad máxima media en intervalos de 10 minutos(hora)
DESCASC
Precipitaciones diarias en mm
DESCASC
Precipitaciones de 00:00 a 06:00 en mm
DESCASC
Precipitaciones de 06:00 a 12:00 en mm
DESCASC
Precipitaciones de 12:00 a 18:00 en mm
DESCASC
Precipitaciones de 18:00 a 24:00 en mm
DESCASC
05-04-2020 17.6 (18:00) 7.1 (06:10) 12.4 18.33 (17:10) 11.11 (17:00) 0 0 0 0 0
04-04-2020 14.9 (16:50) 4.3 (04:30) 9.6 14.72 (12:30) 8.33 (13:20) 0 0 0 0 0
03-04-2020 12.7 (14:00) 6 (21:50) 9.3 14.44 (18:40) 7.5 (18:40) 0 0 0 0 0
02-04-2020 17.7 (16:20) 1.8 (00:00) 9.8 10.28 (15:00) 5.83 (14:20) 0 0 0 0 0
01-04-2020 17.3 (17:30) 0.6 (00:00) 8.9 8.33 (15:20) 4.72 (14:50) 0 0 0 0 0
31-03-2020 13.8 (15:40) 4.8 (00:00) 9.3 11.67 (14:20) 6.11 (14:20) 0 0 0 0 0
30-03-2020 13.8 (18:20) 1.7 (00:00) 7.8 12.5 (20:20) 5.56 (16:40) 0 0 0 0 0
29-03-2020 16.4 (15:10) -0.3 (00:00) 8 16.11 (16:10) 10 (17:20) 0 0 0 0 0
28-03-2020 13.2 (15:10) -3.2 (-00:0) 5 9.72 (16:10) 5.56 (17:30) 0 0 0 0 0
27-03-2020 8.5 (11:40) -1.3 (-00:0) 3.6 12.22 (15:50) 6.39 (15:00) 0 0 0 0 0
26-03-2020 8.6 (13:30) -1.6 (-00:0) 3.5 7.5 (17:40) 4.44 (13:20) 0 0 0 0 0
25-03-2020 10.2 (12:10) -2.9 (-00:0) 3.6 6.94 (12:50) 5.28 (00:10) 0 0 0 0 0
24-03-2020 11.5 (13:40) -1.1 (-00:0) 5.2 16.39 (15:10) 8.33 (15:10) 0 0 0 0 0
23-03-2020 6.5 (16:30) -1 (-00:0) 2.8 31.11 (04:00) 14.17 (09:40) 17.8 11.8 6 0 0
22-03-2020 13.7 (12:00) 0.4 (23:59) 7 18.33 (23:00) 11.11 (23:00) 4.6 0 0 0 4.6
21-03-2020 14.9 (14:50) -0.9 (-00:0) 7 18.33 (15:20) 10 (15:20) 0 0 0 0 0
20-03-2020 13.8 (12:10) -0.3 (00:00) 6.8 11.11 (11:00) 6.94 (10:20) 0 0 0 0 0
19-03-2020 13.1 (14:00) 2.3 (00:00) 7.7 18.89 (12:20) 13.06 (08:20) 0 0 0 0 0
18-03-2020 15.7 (11:30) 1.8 (00:00) 8.7 16.94 (13:30) 10.83 (13:40) 0 0 0 0 0
17-03-2020 15.7 (13:20) 6.1 (00:00) 10.9 14.72 (14:20) 10 (15:00) 0 0 0 0 0
16-03-2020 15.1 (15:40) 1 (00:00) 8.1 18.33 (03:40) 10.56 (04:50) 0 0 0 0 0
15-03-2020 10.4 (14:50) -1.2 (-00:0) 4.6 15.28 (18:40) 9.17 (15:50) 0 0 0 0 0
14-03-2020 12.7 (15:20) -0.1 (00:00) 6.3 14.17 (13:50) 7.22 (14:10) 0 0 0 0 0
13-03-2020 15.3 (12:30) 3.1 (04:20) 9.2 11.11 (17:20) 6.67 (17:00) 0 0 0 0 0
12-03-2020 16.3 (12:50) 3.4 (00:00) 9.8 9.72 (15:00) 5.83 (15:00) 0 0 0 0 0
11-03-2020 16.3 (15:10) 2.6 (00:00) 9.4 10.83 (12:00) 5.56 (14:40) 0 0 0 0 0
10-03-2020 17.8 (14:10) 5.3 (00:00) 11.5 12.5 (02:40) 7.22 (00:10) 0 0 0 0 0
09-03-2020 15.9 (14:40) 5.7 (00:00) 10.8 13.33 (00:40) 8.33 (00:20) 0 0 0 0 0

Gráficas

Temp. máximas Temp. mínimas Temp. medias Precipitaciones Rachas de viento máximas Velocidades máximas media en intervalos de 10 minutos

Datos horarios

Fecha y hora oficial Temperatura (ºC) Velocidad del viento (km/h) Dirección del viento Racha (km/h) Dirección de racha Precipitación (mm) Presión (hPa) Tendencia (hPa) Humedad (%)
2020-04-07 23:00:00 11.6 5 Norte 26 Nordeste 0 -- -- 44
2020-04-07 22:00:00 12.5 18 Este 30 Este 0 -- -- 42
2020-04-07 21:00:00 12.9 18 Este 26 Este 0 -- -- 46
2020-04-07 20:00:00 15.9 6 Sur 26 Este 0 -- -- 43
2020-04-07 19:00:00 15.9 24 Este 37 Este 0 -- -- 38
2020-04-07 18:00:00 18.5 16 Sur 28 Sudeste 0 -- -- 39
2020-04-07 17:00:00 18.6 18 Sur 31 Este 0 -- -- 47
2020-04-07 16:00:00 18.8 19 Sudeste 30 Sur 0 -- -- 32
2020-04-07 15:00:00 19.1 15 Sur 28 Sur 0 -- -- 43
2020-04-07 14:00:00 19.5 15 Sur 26 Sur 0 -- -- 40
2020-04-07 13:00:00 18 14 Oeste 24 Oeste 0 -- -- 32
2020-04-07 12:00:00 16.7 16 Oeste 24 Oeste 0 -- -- 30
2020-04-07 11:00:00 16.4 8 Sudoeste 13 Sur 0 -- -- 28
2020-04-07 10:00:00 13.8 8 Sudoeste 26 Este 0 -- -- 33
2020-04-07 09:00:00 11.7 15 Este 23 Este 0 -- -- 42
2020-04-07 08:00:00 5.8 4 Nordeste 19 Nordeste 0 -- -- 46
2020-04-07 07:00:00 5.2 7 Nordeste 18 Este 0 -- -- 44
2020-04-07 06:00:00 5.4 8 Nordeste 18 Nordeste 0 -- -- 46
2020-04-07 05:00:00 4.4 10 Norte 16 Nordeste 0 -- -- 45
2020-04-07 04:00:00 5.8 8 Nordeste 14 Este 0 -- -- 46
2020-04-07 03:00:00 6 10 Nordeste 14 Nordeste 0 -- -- 52
2020-04-07 02:00:00 5.7 3 Nordeste 9 Nordeste 0 -- -- 44
2020-04-07 01:00:00 7.2 5 Nordeste 14 Nordeste 0 -- -- 37
2020-04-07 00:00:00 8.6 11 Nordeste 15 Nordeste 0 -- -- 32
2020-04-06 23:00:00 8.7 4 Este 16 Este 0 -- -- 39
2020-04-06 22:00:00 10.5 7 Este 25 Sudoeste 0 -- -- 40
2020-04-06 21:00:00 12.7 14 Sudoeste 27 Sudoeste 0 -- -- 34
2020-04-06 20:00:00 13.8 23 Sudoeste 37 Sudoeste 0 -- -- 36
2020-04-06 19:00:00 16.4 17 Sudoeste 39 Sudoeste 0 -- -- 28
2020-04-06 18:00:00 16.7 18 Sudoeste 44 Sudoeste 0 -- -- 30
2020-04-06 17:00:00 17.6 20 Sur 50 Sur 0 -- -- 24
2020-04-06 16:00:00 18.3 30 Sudoeste 56 Sudoeste 0 -- -- 22
2020-04-06 15:00:00 17.9 35 Sudoeste 65 Sudoeste 0 -- -- 16
2020-04-06 14:00:00 17.7 32 Sudoeste 54 Sur 0 -- -- 15
2020-04-06 13:00:00 17.6 30 Sudoeste 51 Sudoeste 0 -- -- 15
2020-04-06 12:00:00 17.1 26 Sudoeste 44 Sudoeste 0 -- -- 16
2020-04-06 11:00:00 16.1 22 Sudoeste 36 Sudoeste 0 -- -- 18
2020-04-06 10:00:00 14.1 12 Sudeste 22 Sudeste 0 -- -- 20
2020-04-06 09:00:00 11.8 9 Este 13 Este 0 -- -- 22
2020-04-06 08:00:00 8 4 Oeste 14 Noroeste 0 -- -- 25
2020-04-06 07:00:00 7.1 8 Este 16 Sudeste 0 -- -- 25
2020-04-06 06:00:00 8.2 7 Este 17 Norte 0 -- -- 21
2020-04-06 05:00:00 7.2 8 Sudoeste 18 Sudoeste 0 -- -- 24
2020-04-06 04:00:00 8.2 8 Sudoeste 14 Sudoeste 0 -- -- 23
2020-04-06 03:00:00 7.1 5 Oeste 15 Sudoeste 0 -- -- 24
2020-04-06 02:00:00 6 3 Nordeste 9 Norte 0 -- -- 26
2020-04-06 01:00:00 8.7 4 Nordeste 13 Sudoeste 0 -- -- 23
2020-04-06 00:00:00 10.9 10 Sudeste 31 Este 0 -- -- 21
2020-04-05 23:00:00 11.5 12 Este 31 Sur 0 -- -- 20
2020-04-05 22:00:00 10.6 6 Sudeste 22 Este 0 -- -- 31
2020-04-05 21:00:00 12 6 Este 49 Sur 0 -- -- 33
2020-04-05 20:00:00 14.5 24 Sudoeste 56 Sur 0 -- -- 22
2020-04-05 19:00:00 16.2 29 Sudoeste 55 Sudoeste 0 -- -- 23
2020-04-05 18:00:00 17.6 24 Sudoeste 66 Sur 0 -- -- 17
2020-04-05 17:00:00 15.5 40 Sudoeste 63 Sudoeste 0 -- -- 45
2020-04-05 16:00:00 16.9 23 Sur 60 Sudoeste 0 -- -- 41
2020-04-05 15:00:00 15.8 28 Sur 60 Sudoeste 0 -- -- 52
2020-04-05 14:00:00 15.9 31 Sur 59 Sudoeste 0 -- -- 37
2020-04-05 13:00:00 15.1 34 Sudoeste 60 Sudoeste 0 -- -- 44
2020-04-05 12:00:00 14.7 27 Sudoeste 46 Sur 0 -- -- 42
2020-04-05 11:00:00 13.4 24 Sudoeste 38 Sudoeste 0 -- -- 48
2020-04-05 10:00:00 12.8 6 Sur 19 Este 0 -- -- 36
2020-04-05 09:00:00 10.3 11 Este 25 Este 0 -- -- 48
2020-04-05 08:00:00 8.2 15 Este 26 Este 0 -- -- 48
2020-04-05 07:00:00 8.8 10 Sudeste 20 Sudoeste 0 -- -- 25
2020-04-05 06:00:00 7.2 5 Nordeste 24 Oeste 0 -- -- 39
2020-04-05 05:00:00 7.8 11 Sudoeste 32 Sudoeste 0 -- -- 57
2020-04-05 04:00:00 9.7 18 Sudoeste 39 Sudoeste 0 -- -- 25
2020-04-05 03:00:00 8.9 17 Sur 39 Sur 0 -- -- 47
2020-04-05 02:00:00 9.6 12 Sur 30 Oeste 0 -- -- 46
2020-04-05 01:00:00 10.7 15 Sudoeste 31 Sur 0 -- -- 40
2020-04-05 00:00:00 9.5 14 Sur 22 Sur 0 -- -- 22
2020-04-04 23:00:00 9.3 13 Sur 28 Sur 0 -- -- 27
2020-04-04 22:00:00 9.2 16 Sur 29 Sur 0 -- -- 29
2020-04-04 21:00:00 10.5 11 Sur 25 Oeste 0 -- -- 24
2020-04-04 20:00:00 11.9 8 Sudoeste 24 Sur 0 -- -- 27
2020-04-04 19:00:00 13.3 10 Oeste 33 Sudoeste 0 -- -- 40
2020-04-04 18:00:00 13.5 19 Oeste 48 Sur 0 -- -- 48
2020-04-04 17:00:00 14.6 16 Sudoeste 48 Sur 0 -- -- 38
2020-04-04 16:00:00 14 21 Sudoeste 49 Sudoeste 0 -- -- 39
2020-04-04 15:00:00 13 24 Sudoeste 44 Sudoeste 0 -- -- 48
2020-04-04 14:00:00 12.2 24 Sudoeste 51 Sur 0 -- -- 54
2020-04-04 13:00:00 11.7 25 Sudoeste 53 Sur 0 -- -- 48
2020-04-04 12:00:00 10.7 24 Sur 46 Sur 0 -- -- 38
2020-04-04 11:00:00 10.3 22 Sur 43 Sudoeste 0 -- -- 36
2020-04-04 10:00:00 9.4 16 Sur 34 Sur 0 -- -- 30
2020-04-04 09:00:00 6.8 14 Sudoeste 27 Sur 0 -- -- 38
2020-04-04 08:00:00 4.9 17 Sur 30 Sudoeste 0 -- -- 44
2020-04-04 07:00:00 5.7 8 Sur 21 Sur 0 -- -- 24
2020-04-04 06:00:00 5.5 9 Sur 37 Sur 0 -- -- 41
2020-04-04 05:00:00 4.8 18 Sur 32 Sudoeste 0 -- -- 63
2020-04-04 04:00:00 4.5 14 Sur 27 Sudoeste 0 -- -- 57
2020-04-04 03:00:00 4.4 13 Sur 29 Oeste 0 -- -- 70
2020-04-04 02:00:00 5.7 13 Oeste 33 Oeste 0 -- -- 72
2020-04-04 01:00:00 5.6 9 Sudoeste 41 Oeste 0 -- -- 69
2020-04-04 00:00:00 6 13 Oeste 44 Oeste 0 -- -- 67
2020-04-03 23:00:00 6.8 20 Oeste 45 Oeste 0 -- -- 63
2020-04-03 22:00:00 6.2 17 Oeste 40 Oeste 0 -- -- 73
2020-04-03 21:00:00 6.3 21 Oeste 46 Oeste 0 -- -- 87
2020-04-03 20:00:00 6.9 24 Oeste 46 Oeste 0 -- -- 89
2020-04-03 19:00:00 7.3 23 Oeste 52 Oeste 0 -- -- 95
2020-04-03 18:00:00 8.5 22 Oeste 48 Sudoeste 0 -- -- 88
2020-04-03 17:00:00 10.4 19 Oeste 45 Oeste 0 -- -- 76
2020-04-03 16:00:00 10.7 18 Oeste 40 Oeste 0 -- -- 74
2020-04-03 15:00:00 10.7 18 Oeste 44 Oeste 0 -- -- 75
2020-04-03 14:00:00 12.7 16 Sudoeste 40 Sudoeste 0 -- -- 64
2020-04-03 13:00:00 11.3 21 Oeste 37 Oeste 0 -- -- 65
2020-04-03 12:00:00 12.5 14 Oeste 35 Sudoeste 0 -- -- 40
2020-04-03 11:00:00 12 12 Sudoeste 30 Sudoeste 0 -- -- 43
2020-04-03 10:00:00 10.8 8 Sudoeste 16 Sudoeste 0 -- -- 46
2020-04-03 09:00:00 8.6 7 Sudoeste 16 Sur 0 -- -- 27
2020-04-03 08:00:00 8.4 9 Sur 13 Sur 0 -- -- 32
2020-04-03 07:00:00 7.9 8 Sur 14 Sur 0 -- -- 31
2020-04-03 06:00:00 7.7 6 Sur 13 Sur 0 -- -- 31
2020-04-03 05:00:00 7.2 7 Sudoeste 15 Sur 0 -- -- 29
2020-04-03 04:00:00 8.3 9 Sudoeste 16 Sudoeste 0 -- -- 26
2020-04-03 03:00:00 8.8 9 Sudoeste 13 Sudoeste 0 -- -- 21
2020-04-03 02:00:00 9.3 6 Sudoeste 8 Sudoeste 0 -- -- 18
2020-04-03 01:00:00 9.3 8 Sudoeste 11 Sudoeste 0 -- -- 19
2020-04-03 00:00:00 9.8 8 Sur 12 Sudoeste 0 -- -- 21
2020-04-02 23:00:00 8.8 4 Oeste 8 Sudoeste 0 -- -- 23
2020-04-02 22:00:00 10 4 Sur 13 Sur 0 -- -- 21
2020-04-02 21:00:00 11.2 6 Sur 17 Oeste 0 -- -- 26
2020-04-02 20:00:00 12.4 8 Oeste 24 Oeste 0 -- -- 31
2020-04-02 19:00:00 14.8 10 Sudoeste 24 Sudoeste 0 -- -- 35
2020-04-02 18:00:00 15.7 14 Oeste 27 Sudoeste 0 -- -- 33
2020-04-02 17:00:00 17.2 13 Oeste 27 Sur 0 -- -- 26
2020-04-02 16:00:00 16.6 14 Oeste 32 Sudoeste 0 -- -- 30
2020-04-02 15:00:00 17.1 17 Sudoeste 37 Sudoeste 0 -- -- 35
2020-04-02 14:00:00 17.3 19 Sur 33 Sudoeste 0 -- -- 30
2020-04-02 13:00:00 16.3 9 Sudoeste 26 Sur 0 -- -- 22
2020-04-02 12:00:00 14.9 12 Sudoeste 21 Sudoeste 0 -- -- 25
2020-04-02 11:00:00 14.2 7 Sudoeste 14 Sudoeste 0 -- -- 15
2020-04-02 10:00:00 12 8 Sur 14 Sudoeste 0 -- -- 15
2020-04-02 09:00:00 7.7 0 Calma 9 Norte 0 -- -- 28
2020-04-02 08:00:00 2.3 6 Norte 11 Norte 0 -- -- 35
2020-04-02 07:00:00 2.8 4 Norte 8 Oeste 0 -- -- 33
2020-04-02 06:00:00 3.9 4 Noroeste 12 Norte 0 -- -- 28
2020-04-02 05:00:00 1.9 3 Nordeste 9 Norte 0 -- -- 37
2020-04-02 04:00:00 2.4 5 Norte 9 Norte 0 -- -- 34
2020-04-02 03:00:00 4.5 4 Norte 11 Norte 0 -- -- 27
2020-04-02 02:00:00 2.4 7 Norte 11 Norte 0 -- -- 36
2020-04-02 01:00:00 5.1 3 Oeste 12 Sur 0 -- -- 27
2020-04-02 00:00:00 6.8 5 Sudoeste 8 Oeste 0 -- -- 26
2020-04-01 23:00:00 8.2 4 Sudoeste 6 Oeste 0 -- -- 26
2020-04-01 22:00:00 9.6 4 Sudoeste 9 Sudoeste 0 -- -- 29
2020-04-01 21:00:00 10.4 8 Sur 15 Oeste 0 -- -- 37
2020-04-01 20:00:00 12.5 9 Sudoeste 23 Sudoeste 0 -- -- 27
2020-04-01 19:00:00 15 14 Oeste 28 Oeste 0 -- -- 36
2020-04-01 18:00:00 16.7 12 Oeste 28 Oeste 0 -- -- 24
2020-04-01 17:00:00 16.7 15 Oeste 29 Noroeste 0 -- -- 16
2020-04-01 16:00:00 16.5 14 Oeste 30 Oeste 0 -- -- 13
2020-04-01 15:00:00 16 16 Oeste 28 Oeste 0 -- -- 18
2020-04-01 14:00:00 15.8 14 Oeste 28 Oeste 0 -- -- 18
2020-04-01 13:00:00 15 14 Oeste 24 Oeste 0 -- -- 22
2020-04-01 12:00:00 14.4 11 Oeste 21 Sudoeste 0 -- -- 18
2020-04-01 11:00:00 11.5 8 Oeste 19 Sudoeste 0 -- -- 28
2020-04-01 10:00:00 10 12 Sudoeste 18 Sudoeste 0 -- -- 28
2020-04-01 09:00:00 6.9 0 Calma 8 Norte 0 -- -- 32
2020-04-01 08:00:00 5.2 3 Sur 5 Sudoeste 0 -- -- 30
2020-04-01 07:00:00 1.7 3 Norte 8 Norte 0 -- -- 41
2020-04-01 06:00:00 2.3 8 Nordeste 10 Norte 0 -- -- 42
2020-04-01 05:00:00 1.2 5 Norte 10 Norte 0 -- -- 46
2020-04-01 04:00:00 1.6 4 Norte 8 Norte 0 -- -- 45
2020-04-01 03:00:00 2.1 6 Norte 10 Norte 0 -- -- 43
2020-04-01 02:00:00 6.4 7 Sudoeste 20 Sudoeste 0 -- -- 32
2020-04-01 01:00:00 8.4 10 Sur 20 Sudoeste 0 -- -- 28
2020-04-01 00:00:00 8 12 Sur 24 Sur 0 -- -- 30
2020-03-31 23:00:00 8.4 13 Sur 31 Sur 0 -- -- 31
2020-03-31 22:00:00 8.5 18 Sur 31 Sudoeste 0 -- -- 34
2020-03-31 21:00:00 8.5 16 Sudoeste 28 Sudoeste 0 -- -- 37
2020-03-31 20:00:00 10.5 13 Sudoeste 35 Sudoeste 0 -- -- 34
2020-03-31 19:00:00 12.3 14 Sudoeste 34 Sudoeste 0 -- -- 31
2020-03-31 18:00:00 13.3 15 Oeste 37 Oeste 0 -- -- 31
2020-03-31 17:00:00 13.2 20 Oeste 41 Sudoeste 0 -- -- 30
2020-03-31 16:00:00 13.4 20 Oeste 40 Oeste 0 -- -- 27
2020-03-31 15:00:00 13.3 20 Oeste 42 Oeste 0 -- -- 28
2020-03-31 14:00:00 13.2 21 Oeste 36 Oeste 0 -- -- 28
2020-03-31 13:00:00 12.9 17 Oeste 34 Sudoeste 0 -- -- 27
2020-03-31 12:00:00 12.2 15 Oeste 31 Oeste 0 -- -- 31
2020-03-31 11:00:00 11.6 12 Oeste 32 Sudoeste 0 -- -- 31
2020-03-31 10:00:00 10 13 Sur 22 Sur 0 -- -- 42
2020-03-31 09:00:00 7 12 Sur 23 Sur 0 -- -- 49
2020-03-31 08:00:00 5.3 10 Sur 20 Sur 0 -- -- 54
2020-03-31 07:00:00 5.2 12 Sur 20 Sudoeste 0 -- -- 56
2020-03-31 06:00:00 5.1 11 Sur 22 Sur 0 -- -- 54
2020-03-31 05:00:00 5.7 12 Sur 23 Sur 0 -- -- 54
2020-03-31 04:00:00 4.9 9 Sur 14 Sur 0 -- -- 58
2020-03-31 03:00:00 5.4 6 Sur 15 Sur 0 -- -- 57
2020-03-31 02:00:00 6.2 7 Sur 23 Sur 0 -- -- 53
2020-03-31 01:00:00 6.3 4 Sur 21 Oeste 0 -- -- 53
2020-03-31 00:00:00 7 5 Sur 18 Oeste 0 -- -- 48
2020-03-30 23:00:00 8 9 Sudoeste 34 Sur 0 -- -- 46
2020-03-30 22:00:00 8.2 11 Sudoeste 36 Oeste 0 -- -- 46
2020-03-30 21:00:00 9.1 10 Sudoeste 45 Sudoeste 0 -- -- 41
2020-03-30 20:00:00 10.4 14 Sudoeste 32 Sur 0 -- -- 40
2020-03-30 19:00:00 12.6 14 Oeste 37 Oeste 0 -- -- 38
2020-03-30 18:00:00 13.3 17 Oeste 42 Oeste 0 -- -- 31
2020-03-30 17:00:00 13.4 19 Oeste 37 Oeste 0 -- -- 30
2020-03-30 16:00:00 13.1 19 Oeste 35 Sudoeste 0 -- -- 33
2020-03-30 15:00:00 12.9 20 Oeste 37 Sudoeste 0 -- -- 31
2020-03-30 14:00:00 12.9 16 Sudoeste 39 Sudoeste 0 -- -- 33
2020-03-30 13:00:00 12.8 18 Oeste 32 Oeste 0 -- -- 31
2020-03-30 12:00:00 12 17 Oeste 31 Oeste 0 -- -- 32
2020-03-30 11:00:00 11.8 12 Sudoeste 37 Sur 0 -- -- 30
2020-03-30 10:00:00 9.8 13 Sudoeste 20 Sudoeste 0 -- -- 44
2020-03-30 09:00:00 8 9 Sur 16 Sudoeste 0 -- -- 46
2020-03-30 08:00:00 6 8 Sur 13 Sudoeste 0 -- -- 39
2020-03-30 07:00:00 6.1 6 Sudoeste 10 Sur 0 -- -- 42
2020-03-30 06:00:00 2.3 3 Sudoeste 9 Sudoeste 0 -- -- 60
2020-03-30 05:00:00 2 4 Sudoeste 8 Sudoeste 0 -- -- 64
2020-03-30 04:00:00 3.4 3 Sudoeste 9 Noroeste 0 -- -- 59
2020-03-30 03:00:00 2.2 2 Oeste 7 Norte 0 -- -- 62
2020-03-30 02:00:00 2.7 3 Norte 6 Nordeste 0 -- -- 60
2020-03-30 01:00:00 3.5 5 Nordeste 10 Norte 0 -- -- 62
2020-03-30 00:00:00 4.2 0 Calma 9 Norte 0 -- -- 58
2020-03-29 23:00:00 5.2 2 Nordeste 8 Norte 0 -- -- 56
2020-03-29 22:00:00 7.4 8 Sur 16 Sudoeste 0 -- -- 45
2020-03-29 21:00:00 9.5 10 Sur 30 Sudoeste 0 -- -- 41
2020-03-29 20:00:00 12 17 Sudoeste 48 Sudoeste 0 -- -- 36
2020-03-29 19:00:00 14.2 29 Sudoeste 55 Sudoeste 0 -- -- 28
2020-03-29 18:00:00 14.4 30 Sur 54 Sudoeste 0 -- -- 27
2020-03-29 17:00:00 15.1 31 Sur 58 Sudoeste 0 -- -- 26
2020-03-29 16:00:00 16.1 32 Sur 51 Sudoeste 0 -- -- 28
2020-03-29 15:00:00 16.3 22 Sur 31 Este 0 -- -- 32
2020-03-29 14:00:00 15.8 24 Sudeste 49 Sudoeste 0 -- -- 33
2020-03-29 13:00:00 15.7 22 Sudoeste 50 Sur 0 -- -- 28
2020-03-29 12:00:00 14.6 15 Sudoeste 33 Sudoeste 0 -- -- 30
2020-03-29 11:00:00 12.7 5 Oeste 17 Sudoeste 0 -- -- 34
2020-03-29 10:00:00 11.5 8 Sudeste 12 Este 0 -- -- 25
2020-03-29 09:00:00 6 5 Nordeste 11 Norte 0 -- -- 31
2020-03-29 08:00:00 0.1 5 Nordeste 12 Norte 0 -- -- 44
2020-03-29 07:00:00 0.4 3 Nordeste 9 Norte 0 -- -- 42
2020-03-29 06:00:00 1.1 3 Norte 12 Norte 0 -- -- 33
2020-03-29 05:00:00 1.4 4 Nordeste 15 Nordeste 0 -- -- 35
2020-03-29 04:00:00 1.7 4 Nordeste 10 Norte 0 -- -- 37
2020-03-29 00:00:00 2.6 4 Nordeste 12 Noroeste 0 -- -- 43
2020-03-28 23:00:00 2.4 4 Este 11 Nordeste 0 -- -- 50
2020-03-28 22:00:00 2.8 4 Este 8 Norte 0 -- -- 59
2020-03-28 21:00:00 3.7 3 Norte 9 Norte 0 -- -- 60
2020-03-28 20:00:00 5.2 3 Sudoeste 8 Sur 0 -- -- 63
2020-03-28 19:00:00 7.5 5 Sudoeste 23 Sudoeste 0 -- -- 61
2020-03-28 18:00:00 8.1 18 Sudoeste 28 Sudoeste 0 -- -- 65
2020-03-28 17:00:00 11 14 Oeste 35 Oeste 0 -- -- 52
2020-03-28 16:00:00 12.1 11 Oeste 27 Oeste 0 -- -- 36
2020-03-28 15:00:00 12.3 12 Sudoeste 21 Oeste 0 -- -- 38
2020-03-28 14:00:00 10.2 13 Sudoeste 28 Sudeste 0 -- -- 66
2020-03-28 13:00:00 11.7 10 Sudoeste 24 Oeste 0 -- -- 55
2020-03-28 12:00:00 10.6 12 Oeste 23 Oeste 0 -- -- 57
2020-03-28 11:00:00 10.1 9 Sudoeste 14 Sur 0 -- -- 51
2020-03-28 10:00:00 6.7 8 Sudoeste 16 Este 0 -- -- 57
2020-03-28 09:00:00 5.7 8 Nordeste 11 Nordeste 0 -- -- 74
2020-03-28 08:00:00 0.2 4 Nordeste 9 Nordeste 0 -- -- 90
2020-03-28 07:00:00 -2.7 4 Norte 15 Nordeste 0 -- -- 88
2020-03-28 06:00:00 -2.8 6 Nordeste 13 Nordeste 0 -- -- 84
2020-03-28 05:00:00 -3.2 4 Norte 13 Nordeste 0 -- -- 89
2020-03-28 04:00:00 -2.5 3 Nordeste 14 Nordeste 0 -- -- 94
2020-03-28 03:00:00 -2.1 7 Norte 14 Nordeste 0 -- -- 97
2020-03-28 02:00:00 -0.5 10 Nordeste 19 Nordeste 0 -- -- 98
2020-03-28 01:00:00 -0.8 7 Nordeste 14 Nordeste 0 -- -- 94
2020-03-28 00:00:00 0.6 6 Nordeste 16 Nordeste 0 -- -- 91
2020-03-27 23:00:00 1.6 8 Sur 19 Sudoeste 0 -- -- 89
2020-03-27 22:00:00 2.2 5 Sudeste 26 Sudoeste 0 -- -- 91
2020-03-27 21:00:00 3.3 11 Sur 15 Sur 0 -- -- 87
2020-03-27 20:00:00 3 6 Sur 15 Sur 0 -- -- 94
2020-03-27 19:00:00 3.1 9 Sudoeste 36 Sudoeste 0 -- -- 94
2020-03-27 18:00:00 5.5 21 Sudoeste 39 Sudoeste 0 -- -- 75
2020-03-27 17:00:00 7.4 14 Oeste 35 Sur 0 -- -- 58
2020-03-27 16:00:00 7 15 Oeste 44 Sur 0 -- -- 63
2020-03-27 15:00:00 7.9 23 Sudoeste 42 Sudoeste 0 -- -- 62
2020-03-27 14:00:00 7.8 17 Oeste 42 Sudoeste 0 -- -- 50
2020-03-27 13:00:00 7.6 18 Oeste 39 Noroeste 0 -- -- 48
2020-03-27 12:00:00 7.4 21 Oeste 37 Oeste 0 -- -- 41
2020-03-27 11:00:00 7.9 14 Oeste 32 Oeste 0 -- -- 45
2020-03-27 10:00:00 7.2 14 Sudoeste 35 Sudoeste 0 -- -- 42
2020-03-27 09:00:00 5.9 6 Sur 12 Este 0 -- -- 67
2020-03-27 08:00:00 2.1 0 Calma 8 Norte 0 -- -- 92
2020-03-27 07:00:00 -0.4 4 Nordeste 9 Nordeste 0 -- -- 98
2020-03-27 06:00:00 -0.1 0 Calma 13 Este 0 -- -- 97
2020-03-27 05:00:00 0.7 5 Este 13 Este 0 -- -- 92
2020-03-27 04:00:00 1.6 4 Sudoeste 17 Este 0 -- -- 88
2020-03-27 03:00:00 -0.1 5 Sudeste 11 Oeste 0 -- -- 89
2020-03-27 02:00:00 0.8 4 Oeste 27 Este 0 -- -- 83
2020-03-27 01:00:00 0.7 20 Este 29 Este 0 -- -- 94
2020-03-27 00:00:00 -0.4 0 Calma 21 Este 0 -- -- 74
2020-03-26 23:00:00 0 3 Nordeste 10 Sudeste 0 -- -- 86
2020-03-26 22:00:00 0.3 6 Norte 18 Este 0 -- -- 86
2020-03-26 21:00:00 1 12 Nordeste 18 Este 0 -- -- 84
2020-03-26 20:00:00 2 13 Este 23 Este 0 -- -- 83
2020-03-26 19:00:00 4.5 7 Sudeste 24 Sudoeste 0 -- -- 74
2020-03-26 18:00:00 6.6 15 Sudoeste 27 Sur 0 -- -- 73
2020-03-26 17:00:00 7.6 10 Oeste 23 Oeste 0 -- -- 69
2020-03-26 16:00:00 6 10 Sudoeste 19 Este 0 -- -- 81
2020-03-26 15:00:00 5.6 9 Sudoeste 22 Sudoeste 0 -- -- 83
2020-03-26 14:00:00 8.5 10 Sur 25 Sur 0 -- -- 64
2020-03-26 13:00:00 7.3 13 Sudoeste 26 Sur 0 -- -- 68
2020-03-26 12:00:00 8 14 Sur 24 Sudeste 0 -- -- 62
2020-03-26 11:00:00 7.3 12 Sur 18 Sur 0 -- -- 67
2020-03-26 10:00:00 4.8 7 Sur 14 Nordeste 0 -- -- 77
2020-03-26 09:00:00 2.3 10 Nordeste 15 Nordeste 0 -- -- 98
2020-03-26 08:00:00 -0.2 2 Este 6 Nordeste 0 -- -- 100
2020-03-26 07:00:00 -1.2 0 Calma 6 Nordeste 0 -- -- 100
2020-03-26 06:00:00 -0.7 5 Norte 8 Norte 0 -- -- 100
2020-03-26 05:00:00 -1 3 Nordeste 5 Sur 0 -- -- 100
2020-03-26 04:00:00 -0.9 2 Sur 5 Noroeste 0 -- -- 100
2020-03-26 03:00:00 -0.9 5 Norte 10 Nordeste 0 -- -- 100
2020-03-26 02:00:00 -0.4 3 Nordeste 21 Nordeste 0 -- -- 99
2020-03-26 01:00:00 0 9 Nordeste 15 Este 0 -- -- 99
2020-03-26 00:00:00 0.3 12 Nordeste 16 Este 0 -- -- 98
2020-03-25 23:00:00 1.8 4 Norte 13 Este 0 -- -- 98
2020-03-25 22:00:00 1.6 10 Este 23 Este 0 -- -- 97
2020-03-25 21:00:00 3.1 4 Norte 10 Nordeste 0 -- -- 90
2020-03-25 20:00:00 4 5 Oeste 12 Sudoeste 0 -- -- 92
2020-03-25 19:00:00 4.6 6 Sudoeste 15 Oeste 0 -- -- 89
2020-03-25 18:00:00 5.8 10 Oeste 21 Sudoeste 0 -- -- 86
2020-03-25 17:00:00 6.3 11 Oeste 20 Oeste 0 -- -- 84
2020-03-25 16:00:00 6.9 13 Oeste 22 Sudoeste 0 -- -- 83
2020-03-25 15:00:00 8.3 14 Oeste 22 Oeste 0 -- -- 78
2020-03-25 14:00:00 7.9 9 Sudoeste 24 Sur 0 -- -- 79
2020-03-25 13:00:00 9.4 14 Sudoeste 25 Sudoeste 0 -- -- 70
2020-03-25 12:00:00 9.3 12 Sudoeste 19 Sudoeste 0 -- -- 62
2020-03-25 11:00:00 7.5 6 Oeste 13 Oeste 0 -- -- 60
2020-03-25 10:00:00 5.9 7 Sudoeste 13 Sur 0 -- -- 57
2020-03-25 09:00:00 3.5 5 Sudoeste 8 Sur 0 -- -- 58
2020-03-25 08:00:00 0.4 0 Calma 9 Norte 0 -- -- 81
2020-03-25 07:00:00 -2.3 5 Este 11 Este 0 -- -- 83
2020-03-25 06:00:00 -1.7 4 Nordeste 11 Nordeste 0 -- -- 62
2020-03-25 05:00:00 -1 8 Nordeste 15 Nordeste 0 -- -- 66
2020-03-25 04:00:00 -0.3 3 Nordeste 10 Norte 0 -- -- 53
2020-03-25 03:00:00 1.2 5 Este 12 Nordeste 0 -- -- 47
2020-03-25 02:00:00 0.9 6 Nordeste 17 Este 0 -- -- 52
2020-03-25 01:00:00 -0.6 7 Nordeste 24 Nordeste 0 -- -- 80
2020-03-25 00:00:00 -0.7 17 Este 29 Este 0 -- -- 94
2020-03-24 23:00:00 -0.3 14 Este 29 Este 0 -- -- 93
2020-03-24 22:00:00 0.2 10 Este 20 Este 0 -- -- 92
2020-03-24 21:00:00 2.4 4 Sudeste 16 Oeste 0 -- -- 88
2020-03-24 20:00:00 4 5 Sudoeste 18 Sur 0 -- -- 86
2020-03-24 19:00:00 6.5 10 Sudoeste 18 Sudoeste 0 -- -- 65
2020-03-24 18:00:00 8.7 10 Sudoeste 23 Oeste 0 -- -- 53
2020-03-24 17:00:00 9.5 9 Sudoeste 31 Oeste 0 -- -- 49
2020-03-24 16:00:00 9.3 18 Sudoeste 59 Sudoeste 0 -- -- 47
2020-03-24 15:00:00 10.9 23 Sudoeste 54 Sudoeste 0 -- -- 23
2020-03-24 14:00:00 11.2 23 Oeste 53 Sudoeste 0 -- -- 18
2020-03-24 13:00:00 10.1 22 Sudoeste 42 Sudoeste 0 -- -- 34
2020-03-24 12:00:00 10.1 17 Oeste 33 Este 0 -- -- 18
2020-03-24 11:00:00 7.3 24 Este 36 Este 0 -- -- 51
2020-03-24 10:00:00 5.8 25 Este 39 Este 0 -- -- 44
2020-03-24 09:00:00 4.2 22 Este 44 Este 0 -- -- 60
2020-03-24 08:00:00 2.3 26 Este 49 Sudeste 0 -- -- 65
2020-03-24 07:00:00 0.9 28 Este 50 Este 0 -- -- 73
2020-03-24 06:00:00 1.7 15 Nordeste 42 Nordeste 0 -- -- 75
2020-03-24 05:00:00 1.7 23 Nordeste 42 Nordeste 0 -- -- 78
2020-03-24 04:00:00 0.7 23 Nordeste 43 Este 0 -- -- 76
2020-03-24 03:00:00 -0.2 5 Noroeste 51 Nordeste 0 -- -- 87
2020-03-24 02:00:00 1.2 17 Norte 38 Norte 0 -- -- 80
2020-03-24 01:00:00 0.6 8 Norte 49 Nordeste 0 -- -- 83
2020-03-24 00:00:00 2.1 16 Norte 47 Norte 0 -- -- 69
2020-03-23 23:00:00 2.8 30 Nordeste 62 Nordeste 0 -- -- 60
2020-03-23 22:00:00 2.5 18 Norte 42 Nordeste 0 -- -- 54
2020-03-23 21:00:00 2.8 27 Norte 57 Nordeste 0 -- -- 64
2020-03-23 20:00:00 4.2 19 Norte 41 Norte 0 -- -- 43
2020-03-23 19:00:00 4.6 21 Norte 59 Nordeste 0 -- -- 40
2020-03-23 18:00:00 6 32 Nordeste 59 Norte 0 -- -- 36
2020-03-23 17:00:00 5.4 39 Nordeste 61 Norte 0 -- -- 66
2020-03-23 16:00:00 5.5 42 Nordeste 63 Norte 0 -- -- 66
2020-03-23 15:00:00 5.1 45 Norte 62 Norte 0 -- -- 66
2020-03-23 14:00:00 4.8 36 Nordeste 55 Nordeste 0 -- -- 70
2020-03-23 13:00:00 4.3 44 Nordeste 64 Norte 0 -- -- 65
2020-03-23 12:00:00 3.4 44 Norte 63 Norte 0 -- -- 66
2020-03-23 11:00:00 1.9 42 Norte 72 Norte 0.6 -- -- 70
2020-03-23 10:00:00 1.2 42 Norte 85 Norte 1.2 -- -- 81
2020-03-23 09:00:00 0.8 30 Nordeste 84 Norte 0.8 -- -- 85
2020-03-23 08:00:00 1 30 Nordeste 97 Norte 1.2 -- -- 77
2020-03-23 07:00:00 -1 33 Nordeste 88 Norte 2.2 -- -- 93
2020-03-23 06:00:00 0.2 31 Norte 79 Norte 3.2 -- -- 78
2020-03-23 05:00:00 0.6 22 Nordeste 67 Nordeste 1.4 -- -- 74
2020-03-23 04:00:00 0.5 37 Noroeste 112 Noroeste 3.2 -- -- 75
2020-03-23 03:00:00 0.3 28 Noroeste 61 Noroeste 1.2 -- -- 80
2020-03-23 02:00:00 0.2 15 Noroeste 81 Norte 1 -- -- 79
2020-03-23 01:00:00 0.3 24 Noroeste 56 Norte 1.8 -- -- 73
2020-03-23 00:00:00 0.4 29 Noroeste 58 Noroeste 1.8 -- -- 76
2020-03-22 23:00:00 0.8 40 Noroeste -- -- 2.2 -- -- 76
2020-03-22 22:00:00 1 26 Norte 63 Norte 0.4 -- -- 74
2020-03-22 21:00:00 1.2 13 Noroeste 45 Noroeste 0.2 -- -- 85
2020-03-22 20:00:00 2.1 21 Noroeste 54 Norte 0 -- -- 57
2020-03-22 19:00:00 2.7 21 Noroeste 43 Oeste 0 -- -- 69
2020-03-22 18:00:00 5.7 13 Oeste 42 Noroeste 0 -- -- 67
2020-03-22 17:00:00 8.7 14 Oeste 45 Oeste 0 -- -- 54
2020-03-22 16:00:00 8.4 23 Noroeste 51 Oeste 0 -- -- 60
2020-03-22 15:00:00 9.2 29 Noroeste 57 Norte 0 -- -- 48
2020-03-22 14:00:00 12.7 19 Noroeste 46 Noroeste 0 -- -- 15
2020-03-22 13:00:00 12.4 23 Noroeste 55 Sur 0 -- -- 17
2020-03-22 12:00:00 13.7 15 Oeste 61 Sur 0 -- -- 8
2020-03-22 11:00:00 13 13 Sudoeste 34 Sur 0 -- -- 8
2020-03-22 10:00:00 9.8 15 Sudeste 25 Este 0 -- -- 31
2020-03-22 09:00:00 5.8 11 Sudeste 39 Este 0 -- -- 51
2020-03-22 08:00:00 2.9 18 Este 29 Este 0 -- -- 59
2020-03-22 07:00:00 2.1 7 Sudeste 30 Este 0 -- -- 48
2020-03-22 06:00:00 1.9 8 Sudeste 29 Este 0 -- -- 52
2020-03-22 05:00:00 3 17 Este 31 Este 0 -- -- 50
2020-03-22 04:00:00 3.7 19 Este 30 Este 0 -- -- 48
2020-03-22 03:00:00 4.3 14 Este 24 Este 0 -- -- 40
2020-03-22 02:00:00 3.5 6 Norte 27 Este 0 -- -- 40
2020-03-22 01:00:00 4.7 14 Este 33 Nordeste 0 -- -- 38
2020-03-22 00:00:00 5.5 18 Este 31 Este 0 -- -- 39
2020-03-21 23:00:00 6.2 23 Este 36 Este 0 -- -- 35
2020-03-21 22:00:00 6.4 17 Este 27 Este 0 -- -- 23
2020-03-21 21:00:00 6.1 10 Este 31 Este 0 -- -- 12
2020-03-21 20:00:00 6.6 4 Noroeste 35 Sudoeste 0 -- -- 14
2020-03-21 19:00:00 10 23 Sudoeste 42 Sur 0 -- -- 20
2020-03-21 18:00:00 11.2 26 Sur 56 Sur 0 -- -- 13
2020-03-21 17:00:00 12.2 27 Sudoeste 55 Sudoeste 0 -- -- 16
2020-03-21 16:00:00 13.4 33 Sur 66 Sudoeste 0 -- -- 13
2020-03-21 15:00:00 14.1 31 Sur 61 Sudoeste 0 -- -- 14
2020-03-21 14:00:00 12.3 13 Oeste 33 Oeste 0 -- -- 35
2020-03-21 13:00:00 12.5 13 Oeste 31 Oeste 0 -- -- 21
2020-03-21 12:00:00 14.1 10 Sudoeste 27 Sudoeste 0 -- -- 17
2020-03-21 11:00:00 13.3 11 Sudoeste 27 Este 0 -- -- 10
2020-03-21 10:00:00 12.1 12 Sudeste 20 Sudeste 0 -- -- 3
2020-03-21 09:00:00 9 5 Sudeste 9 Sudeste 0 -- -- 7
2020-03-21 08:00:00 2.4 0 Calma 6 Norte 0 -- -- 10
2020-03-21 07:00:00 1.4 2 Nordeste 9 Nordeste 0 -- -- 6
2020-03-21 06:00:00 -0.7 8 Norte 11 Norte 0 -- -- 9
2020-03-21 05:00:00 -0.4 5 Nordeste 9 Norte 0 -- -- 9
2020-03-21 04:00:00 -0.8 9 Norte 13 Norte 0 -- -- 10
2020-03-21 03:00:00 1.3 3 Este 17 Norte 0 -- -- 7
2020-03-21 02:00:00 0.9 9 Norte 16 Nordeste 0 -- -- 8
2020-03-21 01:00:00 4.1 9 Nordeste 17 Este 0 -- -- 4
2020-03-21 00:00:00 5.9 13 Este 22 Este 0 -- -- 3
2020-03-20 23:00:00 6 12 Este 23 Nordeste 0 -- -- 4
2020-03-20 22:00:00 4.3 4 Este 15 Este 0 -- -- 10
2020-03-20 21:00:00 6.4 3 Sudeste 11 Nordeste 0 -- -- 22
2020-03-20 20:00:00 7.8 11 Este 25 Este 0 -- -- 7
2020-03-20 19:00:00 10.2 10 Sudoeste 16 Sudoeste 0 -- -- 40
2020-03-20 18:00:00 10.8 10 Sudoeste 23 Sudoeste 0 -- -- 51
2020-03-20 17:00:00 9.8 11 Oeste 27 Oeste 0 -- -- 61
2020-03-20 16:00:00 10.9 15 Oeste 28 Oeste 0 -- -- 55
2020-03-20 15:00:00 11.7 13 Sudoeste 30 Sudoeste 0 -- -- 47
2020-03-20 14:00:00 10.7 15 Oeste 28 Oeste 0 -- -- 59
2020-03-20 13:00:00 11.6 15 Sudoeste 31 Este 0 -- -- 53
2020-03-20 12:00:00 12.6 23 Este 37 Sudeste 0 -- -- 15
2020-03-20 11:00:00 12.8 22 Este 40 Este 0 -- -- 15
2020-03-20 10:00:00 11.1 15 Este 22 Este 0 -- -- 31
2020-03-20 09:00:00 7.9 5 Sur 13 Norte 0 -- -- 31
2020-03-20 08:00:00 2.9 7 Norte 22 Este 0 -- -- 52
2020-03-20 07:00:00 0.1 8 Nordeste 22 Norte 0 -- -- 50
2020-03-20 06:00:00 0.6 12 Nordeste 19 Este 0 -- -- 52
2020-03-20 05:00:00 0.6 10 Nordeste 24 Este 0 -- -- 51
2020-03-20 04:00:00 4.1 13 Este 25 Este 0 -- -- 41
2020-03-20 03:00:00 2.9 17 Este 22 Nordeste 0 -- -- 44
2020-03-20 02:00:00 2.3 4 Nordeste 18 Este 0 -- -- 47
2020-03-20 01:00:00 3.5 8 Este 22 Este 0 -- -- 47
2020-03-20 00:00:00 2.8 10 Nordeste 22 Nordeste 0 -- -- 56
2020-03-19 23:00:00 3.5 6 Nordeste 45 Este 0 -- -- 67
2020-03-19 22:00:00 3.9 12 Nordeste 27 Nordeste 0 -- -- 50
2020-03-19 21:00:00 4.7 16 Nordeste 41 Este 0 -- -- 42
2020-03-19 20:00:00 6.1 23 Nordeste 64 Este 0 -- -- 26
2020-03-19 19:00:00 9.2 21 Este 49 Este 0 -- -- 23
2020-03-19 18:00:00 7.5 16 Sudeste 53 Este 0 -- -- 58
2020-03-19 17:00:00 8.5 31 Este 60 Nordeste 0 -- -- 53
2020-03-19 16:00:00 9.1 35 Este 57 Este 0 -- -- 53
2020-03-19 15:00:00 11 32 Este 64 Este 0 -- -- 46
2020-03-19 14:00:00 13.1 19 Sudeste 56 Este 0 -- -- 39
2020-03-19 13:00:00 10.6 37 Nordeste 68 Nordeste 0 -- -- 40
2020-03-19 12:00:00 8.3 43 Nordeste 67 Nordeste 0 -- -- 61
2020-03-19 11:00:00 9.3 39 Nordeste 67 Nordeste 0 -- -- 51
2020-03-19 10:00:00 7.7 38 Nordeste 67 Nordeste 0 -- -- 56
2020-03-19 09:00:00 4.3 43 Nordeste 65 Nordeste 0 -- -- 71
2020-03-19 08:00:00 3.7 39 Nordeste 58 Este 0 -- -- 61
2020-03-19 07:00:00 5 28 Nordeste 50 Nordeste 0 -- -- 36
2020-03-19 06:00:00 5.2 33 Nordeste 60 Nordeste 0 -- -- 32
2020-03-19 05:00:00 6 37 Nordeste 53 Nordeste 0 -- -- 26
2020-03-19 04:00:00 7.1 39 Nordeste 63 Nordeste 0 -- -- 18
2020-03-19 03:00:00 6.8 43 Norte 68 Norte 0 -- -- 22
2020-03-19 02:00:00 6.7 31 Norte 56 Nordeste 0 -- -- 10
2020-03-19 01:00:00 7.3 21 Norte 51 Norte 0 -- -- 11
2020-03-19 00:00:00 7 21 Norte 39 Norte 0 -- -- 27
2020-03-18 23:00:00 6.4 6 Norte 29 Nordeste 0 -- -- 25
2020-03-18 22:00:00 8.7 19 Norte 52 Nordeste 0 -- -- 17
2020-03-18 21:00:00 7.6 21 Nordeste 57 Norte 0 -- -- 18
2020-03-18 20:00:00 8.2 28 Norte 55 Norte 0 -- -- 8
2020-03-18 19:00:00 9 22 Norte 39 Norte 0 -- -- 10
2020-03-18 18:00:00 12.7 5 Sudoeste 45 Sudeste 0 -- -- 8
2020-03-18 17:00:00 11.7 17 Sudoeste 41 Norte 0 -- -- 23
2020-03-18 16:00:00 14.7 24 Norte 50 Nordeste 0 -- -- 4
2020-03-18 15:00:00 14.5 35 Nordeste 59 Nordeste 0 -- -- 5
2020-03-18 14:00:00 14.5 37 Norte 61 Nordeste 0 -- -- 4
2020-03-18 13:00:00 15 21 Norte 42 Norte 0 -- -- 7
2020-03-18 12:00:00 15.5 18 Norte 44 Nordeste 0 -- -- 8
2020-03-18 11:00:00 15.5 20 Nordeste 46 Nordeste 0 -- -- 9
2020-03-18 10:00:00 12.3 23 Norte 50 Norte 0 -- -- 12
2020-03-18 09:00:00 9.2 8 Oeste 37 Nordeste 0 -- -- 17
2020-03-18 08:00:00 6.6 5 Norte 41 Este 0 -- -- 17
2020-03-18 07:00:00 6.6 19 Este 34 Sudeste 0 -- -- 16
2020-03-18 06:00:00 4.6 10 Este 23 Este 0 -- -- 17
2020-03-18 05:00:00 4.5 8 Este 15 Este 0 -- -- 13
2020-03-18 04:00:00 3.8 8 Norte 17 Este 0 -- -- 24
2020-03-18 03:00:00 2.5 8 Norte 25 Este 0 -- -- 24
2020-03-18 02:00:00 6.4 14 Nordeste 26 Este 0 -- -- 20
2020-03-18 01:00:00 5.8 12 Nordeste 34 Este 0 -- -- 21
2020-03-18 00:00:00 7.6 22 Este 49 Este 0 -- -- 21
2020-03-17 23:00:00 7 32 Este 46 Este 0 -- -- 19
2020-03-17 22:00:00 8 20 Este 42 Este 0 -- -- 8
2020-03-17 21:00:00 7.8 27 Nordeste 44 Este 0 -- -- 8
2020-03-17 20:00:00 8.5 22 Este 39 Este 0 -- -- 9
2020-03-17 19:00:00 11 12 Sudoeste 28 Este 0 -- -- 12
2020-03-17 18:00:00 14.3 8 Oeste 41 Nordeste 0 -- -- 12
2020-03-17 17:00:00 13.4 31 Nordeste 48 Nordeste 0 -- -- 10
2020-03-17 16:00:00 13.4 33 Nordeste 49 Nordeste 0 -- -- 11
2020-03-17 15:00:00 13.4 36 Nordeste 53 Nordeste 0 -- -- 13
2020-03-17 14:00:00 14.7 29 Nordeste 47 Este 0 -- -- 13
2020-03-17 13:00:00 15.1 10 Oeste 46 Nordeste 0 -- -- 11
2020-03-17 12:00:00 13.6 30 Nordeste 48 Nordeste 0 -- -- 9
2020-03-17 11:00:00 13 32 Nordeste 46 Nordeste 0 -- -- 8
2020-03-17 10:00:00 12 28 Nordeste 44 Nordeste 0 -- -- 5
2020-03-17 09:00:00 10.8 23 Este 46 Este 0 -- -- 11
2020-03-17 08:00:00 8.6 23 Este 44 Este 0 -- -- 13
2020-03-17 07:00:00 7.2 25 Este 44 Este 0 -- -- 10
2020-03-17 06:00:00 6.9 23 Este 51 Este 0 -- -- 9
2020-03-17 05:00:00 7.7 26 Este 51 Este 0 -- -- 11
2020-03-17 04:00:00 7.7 25 Este 40 Este 0 -- -- 11
2020-03-17 03:00:00 6.7 20 Este 40 Sudeste 0 -- -- 13
2020-03-17 02:00:00 6.6 24 Este 35 Este 0 -- -- 15
2020-03-17 01:00:00 6.6 21 Este 35 Este 0 -- -- 17
2020-03-17 00:00:00 6.2 24 Este 32 Este 0 -- -- 20
2020-03-16 23:00:00 6 19 Este 34 Este 0 -- -- 20
2020-03-16 22:00:00 6.5 27 Este 35 Este 0 -- -- 19
2020-03-16 21:00:00 6.8 27 Este 37 Este 0 -- -- 19
2020-03-16 20:00:00 7.2 23 Este 37 Este 0 -- -- 18
2020-03-16 19:00:00 8.4 24 Este 43 Este 0 -- -- 20
2020-03-16 18:00:00 10.2 28 Este 48 Sudeste 0 -- -- 21
2020-03-16 17:00:00 11.8 27 Este 44 Este 0 -- -- 21
2020-03-16 16:00:00 13.1 26 Este 37 Este 0 -- -- 21
2020-03-16 15:00:00 14.4 22 Nordeste 37 Nordeste 0 -- -- 9
2020-03-16 14:00:00 14.3 22 Nordeste 39 Este 0 -- -- 10
2020-03-16 13:00:00 14.5 23 Nordeste 39 Este 0 -- -- 9
2020-03-16 12:00:00 13.1 22 Este 34 Este 0 -- -- 10
2020-03-16 11:00:00 11.1 22 Este 34 Nordeste 0 -- -- 21
2020-03-16 10:00:00 9.3 22 Este 35 Este 0 -- -- 25
2020-03-16 09:00:00 7.4 22 Este 35 Este 0 -- -- 33
2020-03-16 08:00:00 4.4 23 Este 32 Este 0 -- -- 46
2020-03-16 07:00:00 3.9 23 Este 44 Este 0 -- -- 38
2020-03-16 06:00:00 5 28 Este 55 Este 0 -- -- 38
2020-03-16 05:00:00 4.7 37 Este 55 Este 0 -- -- 43
2020-03-16 04:00:00 2 35 Este 66 Sudeste 0 -- -- 86
2020-03-16 03:00:00 3.7 37 Este 57 Sudeste 0 -- -- 60
2020-03-16 02:00:00 2.6 19 Este 38 Este 0 -- -- 78
2020-03-16 01:00:00 2 24 Este 46 Este 0 -- -- 87
2020-03-16 00:00:00 1 29 Este 45 Este 0 -- -- 91
2020-03-15 23:00:00 4.1 20 Este 40 Este 0 -- -- 37
2020-03-15 22:00:00 4.3 30 Este 46 Este 0 -- -- 43
2020-03-15 21:00:00 4.5 20 Este 36 Este 0 -- -- 39
2020-03-15 20:00:00 4.1 8 Nordeste 49 Sudeste 0 -- -- 43
2020-03-15 19:00:00 4.9 27 Este 55 Sudeste 0 -- -- 58
2020-03-15 18:00:00 8.8 25 Sudeste 42 Sudeste 0 -- -- 21
2020-03-15 17:00:00 8.8 27 Este 44 Este 0 -- -- 43
2020-03-15 16:00:00 6.9 31 Este 48 Este 0 -- -- 56
2020-03-15 15:00:00 10.4 13 Este 31 Sudoeste 0 -- -- 55
2020-03-15 14:00:00 10.2 20 Este 37 Este 0 -- -- 52
2020-03-15 13:00:00 8.3 26 Este 37 Este 0 -- -- 60
2020-03-15 12:00:00 9.4 19 Este 33 Este 0 -- -- 52
2020-03-15 11:00:00 8.6 22 Este 34 Este 0 -- -- 54
2020-03-15 10:00:00 6.5 21 Nordeste 30 Este 0 -- -- 59
2020-03-15 09:00:00 5.1 10 Nordeste 36 Este 0 -- -- 53
2020-03-15 08:00:00 0.7 18 Nordeste 33 Este 0 -- -- 66
2020-03-15 07:00:00 0.1 14 Este 24 Este 0 -- -- 56
2020-03-15 06:00:00 0.8 7 Este 21 Nordeste 0 -- -- 29
2020-03-15 05:00:00 0.5 7 Nordeste 12 Este 0 -- -- 25
2020-03-15 04:00:00 0.6 6 Norte 13 Norte 0 -- -- 24
2020-03-15 03:00:00 1 3 Nordeste 14 Este 0 -- -- 24
2020-03-15 02:00:00 2.1 8 Nordeste 14 Este 0 -- -- 23
2020-03-15 01:00:00 3 9 Nordeste 21 Nordeste 0 -- -- 25
2020-03-15 00:00:00 3.2 14 Nordeste 20 Este 0 -- -- 26
2020-03-14 23:00:00 3.2 13 Este 21 Nordeste 0 -- -- 31
2020-03-14 22:00:00 3.9 8 Este 14 Este 0 -- -- 29
2020-03-14 21:00:00 4.7 0 Calma 34 Sudoeste 0 -- -- 21
2020-03-14 20:00:00 7.3 18 Sudoeste 38 Sur 0 -- -- 22
2020-03-14 19:00:00 9 14 Sudoeste 38 Noroeste 0 -- -- 20
2020-03-14 18:00:00 11.1 19 Sudoeste 39 Oeste 0 -- -- 19
2020-03-14 17:00:00 11.9 23 Oeste 45 Sudoeste 0 -- -- 17
2020-03-14 16:00:00 11.9 23 Oeste 46 Oeste 0 -- -- 21
2020-03-14 15:00:00 12.3 25 Oeste 46 Sudoeste 0 -- -- 20
2020-03-14 14:00:00 12.1 24 Oeste 51 Oeste 0 -- -- 21
2020-03-14 13:00:00 12.5 17 Oeste 37 Oeste 0 -- -- 21
2020-03-14 12:00:00 12.4 14 Sudoeste 35 Sudoeste 0 -- -- 23
2020-03-14 11:00:00 11.8 15 Oeste 30 Sudoeste 0 -- -- 20
2020-03-14 10:00:00 11.8 9 Sudoeste 22 Sudoeste 0 -- -- 18
2020-03-14 09:00:00 9.7 10 Sur 15 Sur 0 -- -- 20
2020-03-14 08:00:00 2 3 Oeste 12 Noroeste 0 -- -- 33
2020-03-14 07:00:00 1.9 0 Calma 10 Norte 0 -- -- 31
2020-03-14 06:00:00 1.4 6 Nordeste 9 Norte 0 -- -- 34
2020-03-14 05:00:00 0.5 5 Norte 10 Norte 0 -- -- 37
2020-03-14 04:00:00 1 3 Nordeste 7 Norte 0 -- -- 36
2020-03-14 03:00:00 2.3 5 Norte 7 Norte 0 -- -- 35
2020-03-14 02:00:00 2.2 2 Nordeste 6 Nordeste 0 -- -- 34
2020-03-14 01:00:00 3.3 4 Nordeste 9 Norte 0 -- -- 30
2020-03-14 00:00:00 3.7 5 Norte 8 Norte 0 -- -- 31
2020-03-13 23:00:00 4 6 Nordeste 9 Nordeste 0 -- -- 29
2020-03-13 22:00:00 4.6 6 Norte 8 Norte 0 -- -- 28
2020-03-13 21:00:00 8 6 Sur 19 Sudeste 0 -- -- 21
2020-03-13 20:00:00 8.9 10 Sudeste 22 Oeste 0 -- -- 22
2020-03-13 19:00:00 9.9 12 Oeste 34 Oeste 0 -- -- 24
2020-03-13 18:00:00 10.9 14 Oeste 40 Sudoeste 0 -- -- 24
2020-03-13 17:00:00 11.9 24 Sudoeste 39 Sudoeste 0 -- -- 25
2020-03-13 16:00:00 13.2 20 Sudoeste 38 Sur 0 -- -- 24
2020-03-13 15:00:00 13.1 15 Oeste 26 Oeste 0 -- -- 23
2020-03-13 14:00:00 12.9 8 Oeste 26 Sudoeste 0 -- -- 26
2020-03-13 13:00:00 12.7 12 Sur 33 Sur 0 -- -- 30
2020-03-13 12:00:00 15 11 Sudoeste 26 Sudeste 0 -- -- 20
2020-03-13 11:00:00 14.4 7 Sudoeste 18 Sur 0 -- -- 20
2020-03-13 10:00:00 12.8 7 Oeste 12 Oeste 0 -- -- 23
2020-03-13 09:00:00 11.4 4 Sudeste 6 Sudeste 0 -- -- 23
2020-03-13 08:00:00 5.5 5 Nordeste 9 Nordeste 0 -- -- 32
2020-03-13 07:00:00 3.8 8 Nordeste 9 Nordeste 0 -- -- 32
2020-03-13 06:00:00 3.8 7 Nordeste 9 Norte 0 -- -- 32
2020-03-13 05:00:00 4.6 0 Calma 9 Norte 0 -- -- 27
2020-03-13 04:00:00 4.8 3 Nordeste 9 Norte 0 -- -- 25
2020-03-13 03:00:00 4.5 4 Nordeste 8 Norte 0 -- -- 25
2020-03-13 02:00:00 3.7 7 Nordeste 14 Este 0 -- -- 25
2020-03-13 01:00:00 6.3 10 Este 15 Este 0 -- -- 21
2020-03-13 00:00:00 6.4 10 Este 14 Este 0 -- -- 21
2020-03-12 23:00:00 6.8 10 Este 15 Este 0 -- -- 21
2020-03-12 22:00:00 7.4 11 Este 16 Este 0 -- -- 21
2020-03-12 21:00:00 7.9 9 Este 17 Este 0 -- -- 21
2020-03-12 20:00:00 8.8 10 Este 18 Nordeste 0 -- -- 20
2020-03-12 19:00:00 10.8 10 Este 18 Este 0 -- -- 20
2020-03-12 18:00:00 13.4 8 Sur 23 Este 0 -- -- 19
2020-03-12 17:00:00 14.7 13 Sur 24 Sur 0 -- -- 18
2020-03-12 16:00:00 15.7 16 Sur 29 Sur 0 -- -- 16
2020-03-12 15:00:00 15 21 Sudeste 35 Sur 0 -- -- 18
2020-03-12 14:00:00 15.6 17 Sur 30 Sudeste 0 -- -- 16
2020-03-12 13:00:00 16 14 Sur 33 Sur 0 -- -- 16
2020-03-12 12:00:00 15.9 15 Sudeste 30 Este 0 -- -- 14
2020-03-12 11:00:00 15.6 6 Este 15 Este 0 -- -- 14
2020-03-12 10:00:00 13.7 5 Sudoeste 12 Oeste 0 -- -- 15
2020-03-12 09:00:00 12.5 4 Sudeste 10 Sudeste 0 -- -- 17
2020-03-12 08:00:00 6.1 5 Nordeste 13 Norte 0 -- -- 23
2020-03-12 07:00:00 4.5 8 Norte 16 Norte 0 -- -- 25
2020-03-12 06:00:00 5.7 10 Norte 18 Norte 0 -- -- 23
2020-03-12 05:00:00 5.4 7 Nordeste 16 Norte 0 -- -- 22
2020-03-12 04:00:00 6.2 8 Norte 22 Nordeste 0 -- -- 21
2020-03-12 03:00:00 7.3 8 Norte 21 Norte 0 -- -- 20
2020-03-12 02:00:00 5 14 Norte 16 Norte 0 -- -- 23
2020-03-12 01:00:00 6.4 9 Nordeste 20 Este 0 -- -- 19
2020-03-12 00:00:00 6.3 10 Nordeste 18 Nordeste 0 -- -- 19
2020-03-11 23:00:00 6 9 Nordeste 13 Nordeste 0 -- -- 18
2020-03-11 22:00:00 4.1 6 Noroeste 12 Norte 0 -- -- 17
2020-03-11 21:00:00 6.4 3 Norte 13 Sur 0 -- -- 16
2020-03-11 20:00:00 9.3 8 Sur 21 Sur 0 -- -- 16
2020-03-11 19:00:00 11.3 12 Sur 23 Sudeste 0 -- -- 13
2020-03-11 18:00:00 13.2 17 Sur 28 Sur 0 -- -- 11
2020-03-11 17:00:00 14.2 17 Sur 29 Sudeste 0 -- -- 11
2020-03-11 16:00:00 14.5 14 Sudeste 28 Sur 0 -- -- 11
2020-03-11 15:00:00 16 10 Este 37 Sur 0 -- -- 13
2020-03-11 14:00:00 15.4 16 Sudoeste 36 Sur 0 -- -- 15
2020-03-11 13:00:00 13.1 12 Sudeste 36 Sudeste 0 -- -- 12
2020-03-11 12:00:00 14.5 14 Sudeste 39 Sudeste 0 -- -- 13
2020-03-11 11:00:00 14.6 16 Sudeste 33 Sudeste 0 -- -- 12
2020-03-11 10:00:00 12.6 12 Sudeste 31 Sudeste 0 -- -- 13
2020-03-11 09:00:00 11 9 Este 27 Este 0 -- -- 14
2020-03-11 08:00:00 9 5 Nordeste 23 Sudoeste 0 -- -- 14
2020-03-11 07:00:00 7.3 9 Nordeste 20 Sudeste 0 -- -- 15
2020-03-11 06:00:00 5.5 6 Nordeste 16 Norte 0 -- -- 12
2020-03-11 05:00:00 5.6 4 Nordeste 18 Sudoeste 0 -- -- 12
2020-03-11 04:00:00 3 6 Nordeste 10 Norte 0 -- -- 12
2020-03-11 03:00:00 2.6 8 Norte 13 Nordeste 0 -- -- 13
2020-03-11 02:00:00 6.2 4 Norte 10 Nordeste 0 -- -- 11
2020-03-11 01:00:00 5.3 5 Nordeste 14 Nordeste 0 -- -- 9
2020-03-11 00:00:00 5.9 8 Nordeste 13 Nordeste 0 -- -- 9
2020-03-10 23:00:00 6 9 Nordeste 14 Norte 0 -- -- 7
2020-03-10 22:00:00 8.4 8 Este 15 Nordeste 0 -- -- 4
2020-03-10 21:00:00 9.2 12 Este 17 Este 0 -- -- 5
2020-03-10 20:00:00 10.3 12 Este 19 Este 0 -- -- 6
2020-03-10 19:00:00 12.2 13 Este 23 Este 0 -- -- 7
2020-03-10 18:00:00 15.1 12 Este 24 Sudeste 0 -- -- 13
2020-03-10 17:00:00 16.3 11 Este 23 Este 0 -- -- 23
2020-03-10 16:00:00 17 12 Este 26 Este 0 -- -- 13
2020-03-10 15:00:00 17.4 13 Este 30 Este 0 -- -- 15
2020-03-10 14:00:00 16.5 14 Este 37 Este 0 -- -- 15
2020-03-10 13:00:00 17.2 13 Nordeste 31 Este 0 -- -- 11
2020-03-10 12:00:00 16.4 15 Sudeste 32 Este 0 -- -- 12
2020-03-10 11:00:00 16.2 18 Este 33 Este 0 -- -- 10
2020-03-10 10:00:00 15.4 15 Este 30 Sudeste 0 -- -- 9
2020-03-10 09:00:00 14.1 13 Nordeste 21 Nordeste 0 -- -- 9
2020-03-10 08:00:00 7.8 13 Nordeste 18 Nordeste 0 -- -- 10
2020-03-10 07:00:00 6.4 13 Nordeste 21 Este 0 -- -- 11
2020-03-10 06:00:00 7.2 12 Nordeste 18 Nordeste 0 -- -- 11
2020-03-10 05:00:00 7.3 8 Este 33 Sudeste 0 -- -- 12
2020-03-10 04:00:00 9.9 16 Sudeste 32 Sudeste 0 -- -- 7
2020-03-10 03:00:00 10 18 Sudeste 45 Este 0 -- -- 7
2020-03-10 02:00:00 6.6 20 Este 30 Este 0 -- -- 20
2020-03-10 01:00:00 6.5 25 Nordeste 32 Nordeste 0 -- -- 23
2020-03-10 00:00:00 5.7 26 Este 31 Nordeste 0 -- -- 23
2020-03-09 23:00:00 6.1 26 Nordeste 32 Nordeste 0 -- -- 30
2020-03-09 22:00:00 6.6 21 Nordeste 29 Nordeste 0 -- -- 29
2020-03-09 21:00:00 6.7 19 Nordeste 31 Nordeste 0 -- -- 29
2020-03-09 20:00:00 7.5 23 Nordeste 31 Este 0 -- -- 26
2020-03-09 19:00:00 9 21 Este 30 Este 0 -- -- 23
2020-03-09 18:00:00 11.9 19 Este 34 Este 0 -- -- 19
2020-03-09 17:00:00 13.3 22 Este 34 Este 0 -- -- 14
2020-03-09 16:00:00 14.9 21 Este 33 Este 0 -- -- 14
2020-03-09 15:00:00 15.8 17 Este 34 Este 0 -- -- 15
2020-03-09 14:00:00 15 17 Este 32 Este 0 -- -- 18
2020-03-09 13:00:00 14.4 15 Este 33 Nordeste 0 -- -- 23
2020-03-09 12:00:00 14.4 14 Este 30 Nordeste 0 -- -- 22
2020-03-09 11:00:00 13.8 17 Este 28 Este 0 -- -- 22
2020-03-09 10:00:00 12.9 17 Nordeste 30 Nordeste 0 -- -- 22
2020-03-09 09:00:00 10.9 16 Este 30 Este 0 -- -- 25
2020-03-09 08:00:00 6.6 22 Este 39 Nordeste 0 -- -- 33
2020-03-09 07:00:00 7 25 Nordeste 37 Nordeste 0 -- -- 30
2020-03-09 06:00:00 6.9 21 Nordeste 32 Nordeste 0 -- -- 29
2020-03-09 05:00:00 7.4 23 Nordeste 32 Nordeste 0 -- -- 24
2020-03-09 04:00:00 7.7 19 Nordeste 40 Nordeste 0 -- -- 24
2020-03-09 03:00:00 8 16 Nordeste 36 Nordeste 0 -- -- 24
2020-03-09 02:00:00 8.4 22 Nordeste 37 Nordeste 0 -- -- 23
2020-03-09 01:00:00 8.7 26 Nordeste 48 Nordeste 0 -- -- 22
2020-03-09 00:00:00 8.6 28 Nordeste 53 Nordeste 0 -- -- 22